sensor_id;sensor_type;location;lat;lon;timestamp;temperature;humidity
51811;DHT22;52468;40.116;18.296;2024-02-04T00:01:22;7.40;80.60
51811;DHT22;52468;40.116;18.296;2024-02-04T00:03:50;7.30;80.70
51811;DHT22;52468;40.116;18.296;2024-02-04T00:06:18;7.30;80.60
51811;DHT22;52468;40.116;18.296;2024-02-04T00:08:46;7.40;80.70
51811;DHT22;52468;40.116;18.296;2024-02-04T00:11:14;7.30;80.50
51811;DHT22;52468;40.116;18.296;2024-02-04T00:13:41;7.30;80.50
51811;DHT22;52468;40.116;18.296;2024-02-04T00:16:09;7.30;80.70
51811;DHT22;52468;40.116;18.296;2024-02-04T00:18:38;7.30;80.60
51811;DHT22;52468;40.116;18.296;2024-02-04T00:21:06;7.20;80.60
51811;DHT22;52468;40.116;18.296;2024-02-04T00:23:34;7.20;80.80
51811;DHT22;52468;40.116;18.296;2024-02-04T00:26:02;7.20;80.70
51811;DHT22;52468;40.116;18.296;2024-02-04T00:28:30;7.20;80.60
51811;DHT22;52468;40.116;18.296;2024-02-04T00:30:58;7.10;80.60
51811;DHT22;52468;40.116;18.296;2024-02-04T00:33:26;7.10;80.50
51811;DHT22;52468;40.116;18.296;2024-02-04T00:35:54;7.10;80.70
51811;DHT22;52468;40.116;18.296;2024-02-04T00:38:22;7.00;80.60
51811;DHT22;52468;40.116;18.296;2024-02-04T00:40:50;7.00;80.50
51811;DHT22;52468;40.116;18.296;2024-02-04T00:43:20;7.00;80.40
51811;DHT22;52468;40.116;18.296;2024-02-04T00:45:48;7.00;80.30
51811;DHT22;52468;40.116;18.296;2024-02-04T00:48:16;7.00;80.30
51811;DHT22;52468;40.116;18.296;2024-02-04T00:50:44;7.00;80.30
51811;DHT22;52468;40.116;18.296;2024-02-04T00:53:11;7.00;80.30
51811;DHT22;52468;40.116;18.296;2024-02-04T00:55:39;6.90;80.50
51811;DHT22;52468;40.116;18.296;2024-02-04T00:58:07;6.90;80.70
51811;DHT22;52468;40.116;18.296;2024-02-04T01:00:35;6.90;80.60
51811;DHT22;52468;40.116;18.296;2024-02-04T01:03:03;6.90;80.50
51811;DHT22;52468;40.116;18.296;2024-02-04T01:05:31;6.80;80.70
51811;DHT22;52468;40.116;18.296;2024-02-04T01:07:59;6.80;80.70
51811;DHT22;52468;40.116;18.296;2024-02-04T01:10:28;6.80;80.50
51811;DHT22;52468;40.116;18.296;2024-02-04T01:12:56;6.80;80.30
51811;DHT22;52468;40.116;18.296;2024-02-04T01:15:24;6.80;80.30
51811;DHT22;52468;40.116;18.296;2024-02-04T01:17:53;6.60;80.50
51811;DHT22;52468;40.116;18.296;2024-02-04T01:20:21;6.60;80.50
51811;DHT22;52468;40.116;18.296;2024-02-04T01:22:49;6.60;80.50
51811;DHT22;52468;40.116;18.296;2024-02-04T01:25:17;6.50;80.60
51811;DHT22;52468;40.116;18.296;2024-02-04T01:27:44;6.50;80.90
51811;DHT22;52468;40.116;18.296;2024-02-04T01:30:12;6.50;80.80
51811;DHT22;52468;40.116;18.296;2024-02-04T01:32:40;6.60;80.70
51811;DHT22;52468;40.116;18.296;2024-02-04T01:35:08;6.50;80.60
51811;DHT22;52468;40.116;18.296;2024-02-04T01:37:38;6.50;80.70
51811;DHT22;52468;40.116;18.296;2024-02-04T01:40:06;6.50;80.70
51811;DHT22;52468;40.116;18.296;2024-02-04T01:42:34;6.40;80.60
51811;DHT22;52468;40.116;18.296;2024-02-04T01:45:02;6.30;80.70
51811;DHT22;52468;40.116;18.296;2024-02-04T01:47:30;6.30;80.70
51811;DHT22;52468;40.116;18.296;2024-02-04T01:49:58;6.30;80.60
51811;DHT22;52468;40.116;18.296;2024-02-04T01:52:27;6.30;80.60
51811;DHT22;52468;40.116;18.296;2024-02-04T01:54:55;6.30;80.50
51811;DHT22;52468;40.116;18.296;2024-02-04T01:57:23;6.20;80.60
51811;DHT22;52468;40.116;18.296;2024-02-04T01:59:52;6.20;80.90
51811;DHT22;52468;40.116;18.296;2024-02-04T02:02:23;6.20;80.80
51811;DHT22;52468;40.116;18.296;2024-02-04T02:04:51;6.20;80.80
51811;DHT22;52468;40.116;18.296;2024-02-04T02:07:19;6.20;80.60
51811;DHT22;52468;40.116;18.296;2024-02-04T02:09:52;6.10;80.50
51811;DHT22;52468;40.116;18.296;2024-02-04T02:12:25;6.10;80.50
51811;DHT22;52468;40.116;18.296;2024-02-04T02:15:15;6.10;80.80
51811;DHT22;52468;40.116;18.296;2024-02-04T02:17:47;6.10;80.90
51811;DHT22;52468;40.116;18.296;2024-02-04T02:20:32;6.10;81.00
51811;DHT22;52468;40.116;18.296;2024-02-04T02:23:10;6.10;80.60
51811;DHT22;52468;40.116;18.296;2024-02-04T02:25:40;6.10;80.60
51811;DHT22;52468;40.116;18.296;2024-02-04T02:28:08;6.10;80.90
51811;DHT22;52468;40.116;18.296;2024-02-04T02:30:37;6.10;81.10
51811;DHT22;52468;40.116;18.296;2024-02-04T02:33:05;6.20;81.20
51811;DHT22;52468;40.116;18.296;2024-02-04T02:35:35;6.10;80.90
51811;DHT22;52468;40.116;18.296;2024-02-04T02:43:11;6.10;80.50
51811;DHT22;52468;40.116;18.296;2024-02-04T02:45:41;6.10;80.60
51811;DHT22;52468;40.116;18.296;2024-02-04T02:48:11;6.00;80.70
51811;DHT22;52468;40.116;18.296;2024-02-04T02:50:41;6.00;80.80
51811;DHT22;52468;40.116;18.296;2024-02-04T02:53:09;6.10;81.10
51811;DHT22;52468;40.116;18.296;2024-02-04T02:55:37;6.10;81.20
51811;DHT22;52468;40.116;18.296;2024-02-04T02:58:05;6.10;81.30
51811;DHT22;52468;40.116;18.296;2024-02-04T03:00:33;6.10;80.90
51811;DHT22;52468;40.116;18.296;2024-02-04T03:03:01;6.10;80.90
51811;DHT22;52468;40.116;18.296;2024-02-04T03:05:29;6.10;80.70
51811;DHT22;52468;40.116;18.296;2024-02-04T03:07:57;6.10;80.70
51811;DHT22;52468;40.116;18.296;2024-02-04T03:10:25;6.10;80.90
51811;DHT22;52468;40.116;18.296;2024-02-04T03:12:52;6.00;81.00
51811;DHT22;52468;40.116;18.296;2024-02-04T03:15:20;6.00;80.80
51811;DHT22;52468;40.116;18.296;2024-02-04T03:17:49;6.00;80.60
51811;DHT22;52468;40.116;18.296;2024-02-04T03:20:17;6.00;80.70
51811;DHT22;52468;40.116;18.296;2024-02-04T03:22:45;6.00;80.70
51811;DHT22;52468;40.116;18.296;2024-02-04T03:25:13;5.90;80.70
51811;DHT22;52468;40.116;18.296;2024-02-04T03:27:42;5.90;80.70
51811;DHT22;52468;40.116;18.296;2024-02-04T03:30:11;5.90;80.80
51811;DHT22;52468;40.116;18.296;2024-02-04T03:32:38;5.80;81.00
51811;DHT22;52468;40.116;18.296;2024-02-04T03:35:07;5.90;81.00
51811;DHT22;52468;40.116;18.296;2024-02-04T03:37:35;5.80;80.70
51811;DHT22;52468;40.116;18.296;2024-02-04T03:40:03;5.90;80.60
51811;DHT22;52468;40.116;18.296;2024-02-04T03:42:31;5.80;80.50
51811;DHT22;52468;40.116;18.296;2024-02-04T03:45:00;5.80;80.60
51811;DHT22;52468;40.116;18.296;2024-02-04T03:47:30;5.80;80.60
51811;DHT22;52468;40.116;18.296;2024-02-04T03:49:58;5.80;80.80
51811;DHT22;52468;40.116;18.296;2024-02-04T03:52:26;5.80;80.70
51811;DHT22;52468;40.116;18.296;2024-02-04T03:54:54;5.80;80.50
51811;DHT22;52468;40.116;18.296;2024-02-04T03:57:22;5.80;80.50
51811;DHT22;52468;40.116;18.296;2024-02-04T03:59:50;5.80;80.40
51811;DHT22;52468;40.116;18.296;2024-02-04T04:02:18;5.80;80.40
51811;DHT22;52468;40.116;18.296;2024-02-04T04:04:46;5.80;80.40
51811;DHT22;52468;40.116;18.296;2024-02-04T04:07:16;5.70;80.40
51811;DHT22;52468;40.116;18.296;2024-02-04T04:09:44;5.70;80.40
51811;DHT22;52468;40.116;18.296;2024-02-04T04:12:12;5.70;80.40
51811;DHT22;52468;40.116;18.296;2024-02-04T04:14:39;5.60;80.50
51811;DHT22;52468;40.116;18.296;2024-02-04T04:17:07;5.60;80.60
51811;DHT22;52468;40.116;18.296;2024-02-04T04:19:35;5.60;80.90
51811;DHT22;52468;40.116;18.296;2024-02-04T04:22:04;5.60;81.20
51811;DHT22;52468;40.116;18.296;2024-02-04T04:24:32;5.60;81.20
51811;DHT22;52468;40.116;18.296;2024-02-04T04:27:00;5.60;81.20
51811;DHT22;52468;40.116;18.296;2024-02-04T04:29:28;5.60;81.20
51811;DHT22;52468;40.116;18.296;2024-02-04T04:31:56;5.60;81.20
51811;DHT22;52468;40.116;18.296;2024-02-04T04:34:24;5.60;81.20
51811;DHT22;52468;40.116;18.296;2024-02-04T04:36:51;5.60;80.90
51811;DHT22;52468;40.116;18.296;2024-02-04T04:39:19;5.60;80.50
51811;DHT22;52468;40.116;18.296;2024-02-04T04:41:47;5.60;80.50
51811;DHT22;52468;40.116;18.296;2024-02-04T04:44:15;5.60;80.50
51811;DHT22;52468;40.116;18.296;2024-02-04T04:46:43;5.60;80.60
51811;DHT22;52468;40.116;18.296;2024-02-04T04:49:11;5.60;80.60
51811;DHT22;52468;40.116;18.296;2024-02-04T04:51:39;5.60;80.70
51811;DHT22;52468;40.116;18.296;2024-02-04T04:54:07;5.60;80.80
51811;DHT22;52468;40.116;18.296;2024-02-04T04:56:41;5.60;81.10
51811;DHT22;52468;40.116;18.296;2024-02-04T04:59:10;5.60;81.30
51811;DHT22;52468;40.116;18.296;2024-02-04T05:01:45;5.60;81.40
51811;DHT22;52468;40.116;18.296;2024-02-04T05:04:15;5.60;81.30
51811;DHT22;52468;40.116;18.296;2024-02-04T05:06:43;5.60;81.20
51811;DHT22;52468;40.116;18.296;2024-02-04T05:09:11;5.60;81.00
51811;DHT22;52468;40.116;18.296;2024-02-04T05:11:38;5.60;80.60
51811;DHT22;52468;40.116;18.296;2024-02-04T05:14:06;5.60;80.60
51811;DHT22;52468;40.116;18.296;2024-02-04T05:16:35;5.50;80.60
51811;DHT22;52468;40.116;18.296;2024-02-04T05:19:03;5.50;80.70
51811;DHT22;52468;40.116;18.296;2024-02-04T05:21:31;5.50;80.90
51811;DHT22;52468;40.116;18.296;2024-02-04T05:23:59;5.50;80.80
51811;DHT22;52468;40.116;18.296;2024-02-04T05:26:27;5.50;80.70
51811;DHT22;52468;40.116;18.296;2024-02-04T05:28:55;5.50;80.70
51811;DHT22;52468;40.116;18.296;2024-02-04T05:31:22;5.50;80.70
51811;DHT22;52468;40.116;18.296;2024-02-04T05:33:52;5.50;80.70
51811;DHT22;52468;40.116;18.296;2024-02-04T05:36:20;5.40;80.60
51811;DHT22;52468;40.116;18.296;2024-02-04T05:38:48;5.50;80.60
51811;DHT22;52468;40.116;18.296;2024-02-04T05:41:16;5.50;80.60
51811;DHT22;52468;40.116;18.296;2024-02-04T05:43:44;5.50;80.70
51811;DHT22;52468;40.116;18.296;2024-02-04T05:46:13;5.40;80.80
51811;DHT22;52468;40.116;18.296;2024-02-04T05:48:42;5.40;81.00
51811;DHT22;52468;40.116;18.296;2024-02-04T05:51:12;5.40;81.00
51811;DHT22;52468;40.116;18.296;2024-02-04T05:53:40;5.50;80.90
51811;DHT22;52468;40.116;18.296;2024-02-04T05:56:08;5.50;80.80
51811;DHT22;52468;40.116;18.296;2024-02-04T05:58:36;5.40;80.80
51811;DHT22;52468;40.116;18.296;2024-02-04T06:01:04;5.50;80.80
51811;DHT22;52468;40.116;18.296;2024-02-04T06:03:31;5.50;80.80
51811;DHT22;52468;40.116;18.296;2024-02-04T06:05:59;5.50;80.70
51811;DHT22;52468;40.116;18.296;2024-02-04T06:08:27;5.40;81.10
51811;DHT22;52468;40.116;18.296;2024-02-04T06:10:55;5.50;81.50
51811;DHT22;52468;40.116;18.296;2024-02-04T06:13:23;5.60;81.70
51811;DHT22;52468;40.116;18.296;2024-02-04T06:15:51;5.70;81.90
51811;DHT22;52468;40.116;18.296;2024-02-04T06:18:19;6.00;81.40
51811;DHT22;52468;40.116;18.296;2024-02-04T06:20:47;6.30;81.00
51811;DHT22;52468;40.116;18.296;2024-02-04T06:23:15;6.50;81.00
51811;DHT22;52468;40.116;18.296;2024-02-04T06:25:43;6.60;81.00
51811;DHT22;52468;40.116;18.296;2024-02-04T06:28:10;6.90;80.90
51811;DHT22;52468;40.116;18.296;2024-02-04T06:30:38;7.00;80.80
51811;DHT22;52468;40.116;18.296;2024-02-04T06:33:06;7.20;80.40
51811;DHT22;52468;40.116;18.296;2024-02-04T06:35:34;7.30;80.90
51811;DHT22;52468;40.116;18.296;2024-02-04T06:38:02;7.50;80.90
51811;DHT22;52468;40.116;18.296;2024-02-04T06:40:30;7.60;80.90
51811;DHT22;52468;40.116;18.296;2024-02-04T06:42:58;7.80;80.80
51811;DHT22;52468;40.116;18.296;2024-02-04T06:45:26;8.00;80.60
51811;DHT22;52468;40.116;18.296;2024-02-04T06:47:54;8.10;80.50
51811;DHT22;52468;40.116;18.296;2024-02-04T06:50:22;8.30;80.30
51811;DHT22;52468;40.116;18.296;2024-02-04T06:52:49;8.40;79.90
51811;DHT22;52468;40.116;18.296;2024-02-04T06:55:18;8.50;79.70
51811;DHT22;52468;40.116;18.296;2024-02-04T06:57:45;8.50;79.20
51811;DHT22;52468;40.116;18.296;2024-02-04T07:00:14;8.60;79.50
51811;DHT22;52468;40.116;18.296;2024-02-04T07:02:43;8.70;79.40
51811;DHT22;52468;40.116;18.296;2024-02-04T07:05:11;8.80;79.50
51811;DHT22;52468;40.116;18.296;2024-02-04T07:07:39;8.90;79.50
51811;DHT22;52468;40.116;18.296;2024-02-04T07:10:07;9.00;79.90
51811;DHT22;52468;40.116;18.296;2024-02-04T07:12:35;9.10;79.80
51811;DHT22;52468;40.116;18.296;2024-02-04T07:15:03;9.30;79.80
51811;DHT22;52468;40.116;18.296;2024-02-04T07:17:31;9.40;80.10
51811;DHT22;52468;40.116;18.296;2024-02-04T07:19:59;9.70;80.40
51811;DHT22;52468;40.116;18.296;2024-02-04T07:22:27;10.00;80.10
51811;DHT22;52468;40.116;18.296;2024-02-04T07:24:55;10.20;79.80
51811;DHT22;52468;40.116;18.296;2024-02-04T07:27:23;10.30;79.20
51811;DHT22;52468;40.116;18.296;2024-02-04T07:29:50;10.50;79.70
51811;DHT22;52468;40.116;18.296;2024-02-04T07:32:18;10.60;79.40
51811;DHT22;52468;40.116;18.296;2024-02-04T07:34:48;10.60;78.80
51811;DHT22;52468;40.116;18.296;2024-02-04T07:37:16;10.90;79.20
51811;DHT22;52468;40.116;18.296;2024-02-04T07:39:45;11.10;79.60
51811;DHT22;52468;40.116;18.296;2024-02-04T07:42:13;11.40;79.30
51811;DHT22;52468;40.116;18.296;2024-02-04T07:44:41;11.70;79.40
51811;DHT22;52468;40.116;18.296;2024-02-04T07:47:09;12.00;79.70
51811;DHT22;52468;40.116;18.296;2024-02-04T07:49:37;12.10;78.00
51811;DHT22;52468;40.116;18.296;2024-02-04T07:52:05;12.30;77.20
51811;DHT22;52468;40.116;18.296;2024-02-04T07:54:33;12.30;74.70
51811;DHT22;52468;40.116;18.296;2024-02-04T07:57:01;12.40;78.00
51811;DHT22;52468;40.116;18.296;2024-02-04T07:59:29;12.60;78.10
51811;DHT22;52468;40.116;18.296;2024-02-04T08:01:57;12.70;77.10
51811;DHT22;52468;40.116;18.296;2024-02-04T08:04:25;13.00;78.60
51811;DHT22;52468;40.116;18.296;2024-02-04T08:06:54;13.30;79.00
51811;DHT22;52468;40.116;18.296;2024-02-04T08:09:21;13.60;79.00
51811;DHT22;52468;40.116;18.296;2024-02-04T08:11:49;14.00;79.70
51811;DHT22;52468;40.116;18.296;2024-02-04T08:14:17;14.30;79.70
51811;DHT22;52468;40.116;18.296;2024-02-04T08:16:46;14.50;79.50
51811;DHT22;52468;40.116;18.296;2024-02-04T08:19:17;14.70;79.00
51811;DHT22;52468;40.116;18.296;2024-02-04T08:21:45;14.80;79.50
51811;DHT22;52468;40.116;18.296;2024-02-04T08:24:13;14.80;78.60
51811;DHT22;52468;40.116;18.296;2024-02-04T08:26:41;14.90;78.50
51811;DHT22;52468;40.116;18.296;2024-02-04T08:29:08;15.00;78.50
51811;DHT22;52468;40.116;18.296;2024-02-04T08:31:37;15.20;78.30
51811;DHT22;52468;40.116;18.296;2024-02-04T08:34:04;15.50;80.40
51811;DHT22;52468;40.116;18.296;2024-02-04T08:36:33;15.90;80.30
51811;DHT22;52468;40.116;18.296;2024-02-04T08:39:01;16.20;78.80
51811;DHT22;52468;40.116;18.296;2024-02-04T08:41:29;16.50;80.00
51811;DHT22;52468;40.116;18.296;2024-02-04T08:43:56;16.90;79.00
51811;DHT22;52468;40.116;18.296;2024-02-04T08:46:25;17.20;78.30
51811;DHT22;52468;40.116;18.296;2024-02-04T08:48:53;17.60;76.10
51811;DHT22;52468;40.116;18.296;2024-02-04T08:51:21;17.80;77.10
51811;DHT22;52468;40.116;18.296;2024-02-04T08:53:49;17.90;75.30
51811;DHT22;52468;40.116;18.296;2024-02-04T08:56:17;17.90;75.60
51811;DHT22;52468;40.116;18.296;2024-02-04T08:58:47;17.90;75.20
51811;DHT22;52468;40.116;18.296;2024-02-04T09:01:15;18.00;76.60
51811;DHT22;52468;40.116;18.296;2024-02-04T09:03:43;18.00;75.60
51811;DHT22;52468;40.116;18.296;2024-02-04T09:06:11;18.10;76.70
51811;DHT22;52468;40.116;18.296;2024-02-04T09:08:39;18.30;76.00
51811;DHT22;52468;40.116;18.296;2024-02-04T09:11:07;18.10;74.40
51811;DHT22;52468;40.116;18.296;2024-02-04T09:13:35;18.00;72.40
51811;DHT22;52468;40.116;18.296;2024-02-04T09:16:03;18.10;74.10
51811;DHT22;52468;40.116;18.296;2024-02-04T09:18:32;18.00;72.20
51811;DHT22;52468;40.116;18.296;2024-02-04T09:21:00;18.00;73.30
51811;DHT22;52468;40.116;18.296;2024-02-04T09:23:28;17.90;71.80
51811;DHT22;52468;40.116;18.296;2024-02-04T09:25:55;18.00;70.70
51811;DHT22;52468;40.116;18.296;2024-02-04T09:28:23;17.90;68.40
51811;DHT22;52468;40.116;18.296;2024-02-04T09:30:51;17.80;68.00
51811;DHT22;52468;40.116;18.296;2024-02-04T09:33:19;17.80;65.80
51811;DHT22;52468;40.116;18.296;2024-02-04T09:35:47;17.80;64.00
51811;DHT22;52468;40.116;18.296;2024-02-04T09:38:16;17.60;63.70
51811;DHT22;52468;40.116;18.296;2024-02-04T09:40:44;17.50;62.90
51811;DHT22;52468;40.116;18.296;2024-02-04T09:43:12;17.30;60.50
51811;DHT22;52468;40.116;18.296;2024-02-04T09:45:41;17.10;59.70
51811;DHT22;52468;40.116;18.296;2024-02-04T09:48:09;16.90;60.20
51811;DHT22;52468;40.116;18.296;2024-02-04T09:50:38;16.90;61.20
51811;DHT22;52468;40.116;18.296;2024-02-04T09:53:07;16.80;61.10
51811;DHT22;52468;40.116;18.296;2024-02-04T09:55:38;16.60;60.50
51811;DHT22;52468;40.116;18.296;2024-02-04T09:58:07;16.60;61.90
51811;DHT22;52468;40.116;18.296;2024-02-04T10:00:35;16.60;62.00
51811;DHT22;52468;40.116;18.296;2024-02-04T10:03:05;16.60;61.80
51811;DHT22;52468;40.116;18.296;2024-02-04T10:05:33;16.50;62.00
51811;DHT22;52468;40.116;18.296;2024-02-04T10:08:01;16.60;62.30
51811;DHT22;52468;40.116;18.296;2024-02-04T10:10:29;16.90;61.20
51811;DHT22;52468;40.116;18.296;2024-02-04T10:12:58;17.00;61.10
51811;DHT22;52468;40.116;18.296;2024-02-04T10:15:30;17.10;59.90
51811;DHT22;52468;40.116;18.296;2024-02-04T10:17:59;17.10;58.10
51811;DHT22;52468;40.116;18.296;2024-02-04T10:20:30;17.30;57.50
51811;DHT22;52468;40.116;18.296;2024-02-04T10:22:58;17.40;56.50
51811;DHT22;52468;40.116;18.296;2024-02-04T10:25:26;17.40;53.00
51811;DHT22;52468;40.116;18.296;2024-02-04T10:27:54;17.20;52.10
51811;DHT22;52468;40.116;18.296;2024-02-04T10:30:22;17.30;52.10
51811;DHT22;52468;40.116;18.296;2024-02-04T10:32:51;17.40;51.20
51811;DHT22;52468;40.116;18.296;2024-02-04T10:35:23;17.50;51.30
51811;DHT22;52468;40.116;18.296;2024-02-04T10:37:51;17.60;51.70
51811;DHT22;52468;40.116;18.296;2024-02-04T10:40:20;17.80;51.50
51811;DHT22;52468;40.116;18.296;2024-02-04T10:42:49;18.00;51.70
51811;DHT22;52468;40.116;18.296;2024-02-04T10:45:20;18.10;51.50
51811;DHT22;52468;40.116;18.296;2024-02-04T10:47:55;18.30;51.50
51811;DHT22;52468;40.116;18.296;2024-02-04T10:50:24;18.30;51.30
51811;DHT22;52468;40.116;18.296;2024-02-04T10:52:56;18.40;51.30
51811;DHT22;52468;40.116;18.296;2024-02-04T10:55:28;18.20;51.30
51811;DHT22;52468;40.116;18.296;2024-02-04T10:57:57;18.20;51.60
51811;DHT22;52468;40.116;18.296;2024-02-04T11:00:27;18.40;50.40
51811;DHT22;52468;40.116;18.296;2024-02-04T11:02:56;18.30;49.20
51811;DHT22;52468;40.116;18.296;2024-02-04T11:05:25;18.50;48.40
51811;DHT22;52468;40.116;18.296;2024-02-04T11:07:54;18.60;47.80
51811;DHT22;52468;40.116;18.296;2024-02-04T11:10:23;18.70;47.80
51811;DHT22;52468;40.116;18.296;2024-02-04T11:12:52;18.60;46.80
51811;DHT22;52468;40.116;18.296;2024-02-04T11:15:21;18.70;46.10
51811;DHT22;52468;40.116;18.296;2024-02-04T11:18:14;18.90;44.80
51811;DHT22;52468;40.116;18.296;2024-02-04T11:21:14;18.80;43.20
51811;DHT22;52468;40.116;18.296;2024-02-04T11:26:48;18.80;41.90
51811;DHT22;52468;40.116;18.296;2024-02-04T11:29:16;18.80;41.70
51811;DHT22;52468;40.116;18.296;2024-02-04T11:31:45;18.70;41.40
51811;DHT22;52468;40.116;18.296;2024-02-04T11:34:13;18.70;41.30
51811;DHT22;52468;40.116;18.296;2024-02-04T11:36:41;18.80;41.90
51811;DHT22;52468;40.116;18.296;2024-02-04T11:39:18;19.00;41.70
51811;DHT22;52468;40.116;18.296;2024-02-04T11:41:50;19.00;42.10
51811;DHT22;52468;40.116;18.296;2024-02-04T11:44:25;19.20;42.30
51811;DHT22;52468;40.116;18.296;2024-02-04T11:46:55;19.10;42.10
51811;DHT22;52468;40.116;18.296;2024-02-04T11:49:25;19.20;42.20
51811;DHT22;52468;40.116;18.296;2024-02-04T11:51:54;19.30;42.10
51811;DHT22;52468;40.116;18.296;2024-02-04T11:54:22;19.30;41.50
51811;DHT22;52468;40.116;18.296;2024-02-04T11:56:53;19.40;41.30
51811;DHT22;52468;40.116;18.296;2024-02-04T11:59:23;19.60;41.10
51811;DHT22;52468;40.116;18.296;2024-02-04T12:01:57;19.80;40.80
51811;DHT22;52468;40.116;18.296;2024-02-04T12:04:27;19.60;40.60
51811;DHT22;52468;40.116;18.296;2024-02-04T12:06:57;19.70;40.40
51811;DHT22;52468;40.116;18.296;2024-02-04T12:09:26;19.80;40.40
51811;DHT22;52468;40.116;18.296;2024-02-04T12:11:55;20.00;40.60
51811;DHT22;52468;40.116;18.296;2024-02-04T12:14:23;20.00;40.20
51811;DHT22;52468;40.116;18.296;2024-02-04T12:16:51;20.00;40.20
51811;DHT22;52468;40.116;18.296;2024-02-04T12:19:19;20.00;40.20
51811;DHT22;52468;40.116;18.296;2024-02-04T12:21:48;20.00;40.00
51811;DHT22;52468;40.116;18.296;2024-02-04T12:24:16;20.00;39.70
51811;DHT22;52468;40.116;18.296;2024-02-04T12:26:44;20.20;39.50
51811;DHT22;52468;40.116;18.296;2024-02-04T12:29:14;20.10;39.60
51811;DHT22;52468;40.116;18.296;2024-02-04T12:31:43;20.20;39.50
51811;DHT22;52468;40.116;18.296;2024-02-04T12:34:13;20.10;39.60
51811;DHT22;52468;40.116;18.296;2024-02-04T12:36:41;20.10;39.60
51811;DHT22;52468;40.116;18.296;2024-02-04T12:39:10;20.00;39.60
51811;DHT22;52468;40.116;18.296;2024-02-04T12:41:39;20.10;39.00
51811;DHT22;52468;40.116;18.296;2024-02-04T12:44:07;20.20;38.70
51811;DHT22;52468;40.116;18.296;2024-02-04T12:46:35;20.10;38.80
51811;DHT22;52468;40.116;18.296;2024-02-04T12:49:03;20.00;39.10
51811;DHT22;52468;40.116;18.296;2024-02-04T12:51:32;20.10;38.80
51811;DHT22;52468;40.116;18.296;2024-02-04T12:54:12;20.10;38.50
51811;DHT22;52468;40.116;18.296;2024-02-04T12:56:49;20.10;37.80
51811;DHT22;52468;40.116;18.296;2024-02-04T12:59:30;20.10;37.80
51811;DHT22;52468;40.116;18.296;2024-02-04T13:02:08;20.00;37.90
51811;DHT22;52468;40.116;18.296;2024-02-04T13:04:38;20.10;37.70
51811;DHT22;52468;40.116;18.296;2024-02-04T13:07:07;20.00;37.60
51811;DHT22;52468;40.116;18.296;2024-02-04T13:09:36;20.00;37.80
51811;DHT22;52468;40.116;18.296;2024-02-04T13:12:08;20.00;37.20
51811;DHT22;52468;40.116;18.296;2024-02-04T13:14:37;19.90;37.20
51811;DHT22;52468;40.116;18.296;2024-02-04T13:17:05;20.10;37.10
51811;DHT22;52468;40.116;18.296;2024-02-04T13:19:38;20.00;37.10
51811;DHT22;52468;40.116;18.296;2024-02-04T13:22:06;20.00;37.10
51811;DHT22;52468;40.116;18.296;2024-02-04T13:24:37;20.00;37.00
51811;DHT22;52468;40.116;18.296;2024-02-04T13:27:07;20.00;37.00
51811;DHT22;52468;40.116;18.296;2024-02-04T13:29:35;20.00;37.00
51811;DHT22;52468;40.116;18.296;2024-02-04T13:32:04;20.00;36.90
51811;DHT22;52468;40.116;18.296;2024-02-04T13:34:33;19.90;36.90
51811;DHT22;52468;40.116;18.296;2024-02-04T13:37:01;19.90;36.40
51811;DHT22;52468;40.116;18.296;2024-02-04T13:39:29;19.90;36.70
51811;DHT22;52468;40.116;18.296;2024-02-04T13:41:57;19.70;36.50
51811;DHT22;52468;40.116;18.296;2024-02-04T13:44:25;19.70;36.70
51811;DHT22;52468;40.116;18.296;2024-02-04T13:46:53;19.50;36.80
51811;DHT22;52468;40.116;18.296;2024-02-04T13:49:21;19.60;36.90
51811;DHT22;52468;40.116;18.296;2024-02-04T13:51:48;19.70;36.90
51811;DHT22;52468;40.116;18.296;2024-02-04T13:54:16;19.70;37.30
51811;DHT22;52468;40.116;18.296;2024-02-04T13:56:47;19.70;37.40
51811;DHT22;52468;40.116;18.296;2024-02-04T13:59:15;19.80;37.50
51811;DHT22;52468;40.116;18.296;2024-02-04T14:01:43;19.80;37.40
51811;DHT22;52468;40.116;18.296;2024-02-04T14:04:12;19.70;37.40
51811;DHT22;52468;40.116;18.296;2024-02-04T14:06:40;19.60;37.40
51811;DHT22;52468;40.116;18.296;2024-02-04T14:09:07;19.60;37.20
51811;DHT22;52468;40.116;18.296;2024-02-04T14:11:35;19.50;37.60
51811;DHT22;52468;40.116;18.296;2024-02-04T14:14:03;19.60;37.20
51811;DHT22;52468;40.116;18.296;2024-02-04T14:16:31;19.60;37.10
51811;DHT22;52468;40.116;18.296;2024-02-04T14:18:59;19.50;37.10
51811;DHT22;52468;40.116;18.296;2024-02-04T14:21:27;19.50;37.30
51811;DHT22;52468;40.116;18.296;2024-02-04T14:23:55;19.50;37.50
51811;DHT22;52468;40.116;18.296;2024-02-04T14:26:23;19.50;37.60
51811;DHT22;52468;40.116;18.296;2024-02-04T14:28:51;19.60;37.50
51811;DHT22;52468;40.116;18.296;2024-02-04T14:31:19;19.50;37.40
51811;DHT22;52468;40.116;18.296;2024-02-04T14:33:47;19.30;37.60
51811;DHT22;52468;40.116;18.296;2024-02-04T14:36:15;19.20;37.80
51811;DHT22;52468;40.116;18.296;2024-02-04T14:38:43;19.10;38.10
51811;DHT22;52468;40.116;18.296;2024-02-04T14:41:11;19.00;38.40
51811;DHT22;52468;40.116;18.296;2024-02-04T14:43:39;19.00;38.30
51811;DHT22;52468;40.116;18.296;2024-02-04T14:46:07;18.90;38.40
51811;DHT22;52468;40.116;18.296;2024-02-04T14:48:38;18.80;38.50
51811;DHT22;52468;40.116;18.296;2024-02-04T14:51:08;18.80;38.70
51811;DHT22;52468;40.116;18.296;2024-02-04T14:53:36;18.70;38.90
51811;DHT22;52468;40.116;18.296;2024-02-04T14:56:04;18.50;39.20
51811;DHT22;52468;40.116;18.296;2024-02-04T14:58:32;18.40;39.70
51811;DHT22;52468;40.116;18.296;2024-02-04T15:01:01;18.40;39.80
51811;DHT22;52468;40.116;18.296;2024-02-04T15:03:29;18.40;39.80
51811;DHT22;52468;40.116;18.296;2024-02-04T15:05:57;18.40;39.90
51811;DHT22;52468;40.116;18.296;2024-02-04T15:08:24;18.30;40.00
51811;DHT22;52468;40.116;18.296;2024-02-04T15:10:52;18.30;40.30
51811;DHT22;52468;40.116;18.296;2024-02-04T15:13:20;18.10;40.30
51811;DHT22;52468;40.116;18.296;2024-02-04T15:15:49;18.10;40.50
51811;DHT22;52468;40.116;18.296;2024-02-04T15:18:17;18.00;40.80
51811;DHT22;52468;40.116;18.296;2024-02-04T15:20:45;18.00;41.30
51811;DHT22;52468;40.116;18.296;2024-02-04T15:23:14;17.90;41.30
51811;DHT22;52468;40.116;18.296;2024-02-04T15:25:42;17.70;41.50
51811;DHT22;52468;40.116;18.296;2024-02-04T15:28:11;17.60;41.90
51811;DHT22;52468;40.116;18.296;2024-02-04T15:30:41;17.50;46.60
51811;DHT22;52468;40.116;18.296;2024-02-04T15:33:09;17.40;51.40
51811;DHT22;52468;40.116;18.296;2024-02-04T15:35:37;17.20;54.50
51811;DHT22;52468;40.116;18.296;2024-02-04T15:38:05;17.00;57.30
51811;DHT22;52468;40.116;18.296;2024-02-04T15:40:34;16.90;57.40